Washington Depot, CT

1:27 AM EST on February 08, 2016 (GMT -0500)
Nettleton Hollow | | Change Station
CLOSE
Current Station
Personal Weather Station
Location: Washington, CT
Elevation: 696 ft
Nearby Weather Stations

Elev 696 ft 41.64 °N, 73.27 °W | Updated 0 second ago

Mostly Cloudy
Mostly Cloudy
33.4 °F
Feels Like 30 °F
N
3.8
Wind Variable Wind from North
Gusts 5.4 mph

Today
High -- | Low -- °F
--% Chance of Precip.
Yesterday
High -- | Low -- °F
Precip. -- in
Pressure 29.87 in
Visibility 10.0 miles
Clouds Clear
Windchill 30 °F
Dew Point 21 °F
Humidity 61%
Rainfall 0.00 in
Snow Depth Not available.
6:58 AM 5:17 PM
Waning Crescent, 0% visible
METAR KOXC 080615Z 04012G17KT 10SM CLR 01/M07 A2987 RMK AO1
Pressure 29.87 in
Visibility 10.0 miles
Clouds Clear
Windchill 30 °F
Dew Point 21 °F
Humidity 61%
Rainfall 0.00 in
Snow Depth Not available.
6:58 AM 5:17 PM
Waning Crescent, 0% visible
METAR KOXC 080615Z 04012G17KT 10SM CLR 01/M07 A2987 RMK AO1

10-Day Weather Forecast

Almanac

Astronomy

Feb. 08, 2016 Rise Set
Actual Time
Civil Twilight
Nautical Twilight
Astronomical Twilight
Moon
Length of Visible Light
Length of Day
Tomorrow will be .
, % of the Moon is Illuminated

Today's Extremes

State Highs State Lows

Community

WunderPhotos

Upload Photos

1,891,393 photos uploaded!

WunderBlog® & News

Nearby

Air Quality

  Air Quality AQ Index Pollutant
Not available.

Snow Depth

Station Depth Elevation

Earthquake Activity

City Distance Mag. Time & Date
Minimum magnitude displayed is 2.5.

Coastal Water Temperatures

Place Temperature

Stations

Nearby Weather Stations

Station Location Temp. Windchill Dew Point Humidity Wind Precip. Elev Updated Type
                   

Watches & Warnings

There are currently no watches in effect.